createdAt,value
2018-02-04T00:01:04.251Z,96070.61
2018-02-04T00:03:30.247Z,96074.67
2018-02-04T00:05:56.331Z,96078.42
2018-02-04T00:08:22.344Z,96079.98
2018-02-04T00:10:48.356Z,96073.20
2018-02-04T00:13:14.393Z,96076.28
2018-02-04T00:15:40.408Z,96079.72
2018-02-04T00:18:06.475Z,96081.20
2018-02-04T00:20:32.490Z,96089.11
2018-02-04T00:22:58.477Z,96086.56
2018-02-04T00:25:24.559Z,96086.95
2018-02-04T00:27:50.552Z,96089.76
2018-02-04T00:30:16.600Z,96084.96
2018-02-04T00:32:42.591Z,96087.92
2018-02-04T00:35:08.705Z,96085.48
2018-02-04T00:37:34.736Z,96087.55
2018-02-04T00:40:00.724Z,96087.68
2018-02-04T00:42:26.779Z,96088.95
2018-02-04T00:44:52.805Z,96096.47
2018-02-04T00:47:18.752Z,96097.07
2018-02-04T00:49:44.752Z,96093.24
2018-02-04T00:52:10.772Z,96096.88
2018-02-04T00:54:36.737Z,96096.45
2018-02-04T00:57:02.789Z,96103.83
2018-02-04T00:59:28.832Z,96104.55
2018-02-04T01:01:54.857Z,96106.47
2018-02-04T01:04:20.796Z,96114.89
2018-02-04T01:06:46.785Z,96113.57
2018-02-04T01:09:12.760Z,96115.59
2018-02-04T01:11:38.772Z,96116.20
2018-02-04T01:14:04.861Z,96110.52
2018-02-04T01:16:30.957Z,96119.58
2018-02-04T01:18:56.897Z,96114.46
2018-02-04T01:21:22.931Z,96116.06
2018-02-04T01:23:48.868Z,96118.86
2018-02-04T01:26:14.905Z,96114.51
2018-02-04T01:28:40.963Z,96116.43
2018-02-04T01:31:06.991Z,96119.41
2018-02-04T01:33:33.081Z,96125.98
2018-02-04T01:35:59.040Z,96134.24
2018-02-04T01:38:25.051Z,96128.31
2018-02-04T01:40:51.048Z,96128.48
2018-02-04T01:43:17.516Z,96128.60
2018-02-04T01:45:43.653Z,96132.31
2018-02-04T01:48:09.660Z,96128.45
2018-02-04T01:50:35.675Z,96127.44
2018-02-04T01:53:01.753Z,96129.70
2018-02-04T01:55:27.867Z,96132.97
2018-02-04T01:57:53.872Z,96133.88
2018-02-04T02:00:19.995Z,96132.09
2018-02-04T02:02:46.032Z,96137.23
2018-02-04T02:05:12.013Z,96136.36
2018-02-04T02:07:38.024Z,96139.77
2018-02-04T02:10:04.092Z,96137.22
2018-02-04T02:12:30.121Z,96138.14
2018-02-04T02:14:56.105Z,96146.70
2018-02-04T02:17:22.173Z,96146.91
2018-02-04T02:19:48.183Z,96157.28
2018-02-04T02:22:14.196Z,96154.41
2018-02-04T02:24:40.212Z,96145.97
2018-02-04T02:27:06.214Z,96145.71
2018-02-04T02:29:32.303Z,96152.95
2018-02-04T02:31:58.276Z,96152.41
2018-02-04T02:34:24.260Z,96148.02
2018-02-04T02:36:50.270Z,96161.11
2018-02-04T02:39:16.338Z,96160.56
2018-02-04T02:41:42.365Z,96172.33
2018-02-04T02:44:08.368Z,96172.08
2018-02-04T02:46:34.349Z,96175.06
2018-02-04T02:49:00.354Z,96183.34
2018-02-04T02:51:26.461Z,96174.45
2018-02-04T02:53:52.477Z,96178.28
2018-02-04T02:56:18.476Z,96173.63
2018-02-04T02:58:44.482Z,96178.33
2018-02-04T03:01:10.533Z,96171.42
2018-02-04T03:03:36.506Z,96179.78
2018-02-04T03:06:02.466Z,96178.77
2018-02-04T03:08:28.500Z,96190.81
2018-02-04T03:10:54.496Z,96186.97
2018-02-04T03:13:20.472Z,96195.44
2018-02-04T03:15:46.520Z,96190.98
2018-02-04T03:18:12.463Z,96192.89
2018-02-04T03:20:38.453Z,96194.34
2018-02-04T03:23:04.470Z,96207.77
2018-02-04T03:25:30.540Z,96204.59
2018-02-04T03:27:56.580Z,96211.55
2018-02-04T03:30:22.977Z,96207.09
2018-02-04T03:32:48.993Z,96213.75
2018-02-04T03:35:14.987Z,96210.63
2018-02-04T03:37:40.997Z,96208.27
2018-02-04T03:40:06.947Z,96214.57
2018-02-04T03:42:32.959Z,96214.42
2018-02-04T03:44:58.976Z,96218.30
2018-02-04T03:47:25.024Z,96223.40
2018-02-04T03:49:50.992Z,96222.61
2018-02-04T03:52:16.932Z,96225.26
2018-02-04T03:54:43.208Z,96224.50
2018-02-04T03:57:09.236Z,96227.70
2018-02-04T03:59:35.321Z,96231.81
2018-02-04T04:02:01.407Z,96236.74
2018-02-04T04:04:27.469Z,96240.46
2018-02-04T04:06:53.501Z,96246.22
2018-02-04T04:09:19.514Z,96245.27
2018-02-04T04:11:45.596Z,96237.76
2018-02-04T04:14:11.612Z,96239.32
2018-02-04T04:16:37.611Z,96249.38
2018-02-04T04:19:03.669Z,96249.29
2018-02-04T04:21:29.692Z,96250.77
2018-02-04T04:23:55.770Z,96256.59
2018-02-04T04:26:21.721Z,96257.67
2018-02-04T04:28:47.781Z,96257.16
2018-02-04T04:31:13.775Z,96261.52
2018-02-04T04:33:39.825Z,96262.66
2018-02-04T04:36:05.801Z,96270.88
2018-02-04T04:38:31.813Z,96269.95
2018-02-04T04:40:57.820Z,96272.57
2018-02-04T04:43:23.905Z,96271.12
2018-02-04T04:45:49.904Z,96277.31
2018-02-04T04:48:15.912Z,96271.06
2018-02-04T04:50:41.925Z,96269.27
2018-02-04T04:53:07.935Z,96276.17
2018-02-04T04:55:33.957Z,96282.06
2018-02-04T04:57:59.952Z,96276.21
2018-02-04T05:00:25.984Z,96282.73
2018-02-04T05:02:51.981Z,96284.73
2018-02-04T05:05:17.993Z,96288.69
2018-02-04T05:07:44.066Z,96287.00
2018-02-04T05:10:10.019Z,96298.20
2018-02-04T05:12:35.944Z,96290.99
2018-02-04T05:15:02.173Z,96291.69
2018-02-04T05:17:28.092Z,96295.41
2018-02-04T05:19:54.101Z,96292.91
2018-02-04T05:22:20.115Z,96302.42
2018-02-04T05:24:46.088Z,96311.19
2018-02-04T05:27:12.102Z,96302.11
2018-02-04T05:29:38.098Z,96303.26
2018-02-04T05:32:04.140Z,96302.73
2018-02-04T05:34:30.132Z,96307.23
2018-02-04T05:36:56.163Z,96309.65
2018-02-04T05:39:22.172Z,96314.42
2018-02-04T05:41:48.089Z,96317.32
2018-02-04T05:44:14.112Z,96313.59
2018-02-04T05:46:40.124Z,96326.52
2018-02-04T05:49:06.128Z,96324.16
2018-02-04T05:51:32.326Z,96327.37
2018-02-04T05:53:58.308Z,96333.38
2018-02-04T05:56:24.341Z,96340.75
2018-02-04T05:58:50.336Z,96345.69
2018-02-04T06:01:16.354Z,96348.39
2018-02-04T06:03:42.410Z,96346.67
2018-02-04T06:06:08.450Z,96360.55
2018-02-04T06:08:34.468Z,96358.05
2018-02-04T06:11:00.580Z,96364.85
2018-02-04T06:13:26.560Z,96365.80
2018-02-04T06:15:52.593Z,96376.08
2018-02-04T06:18:18.636Z,96381.04
2018-02-04T06:20:44.821Z,96388.63
2018-02-04T06:23:10.841Z,96396.68
2018-02-04T06:25:36.874Z,96397.14
2018-02-04T06:28:02.925Z,96405.20
2018-02-04T06:30:28.896Z,96408.92
2018-02-04T06:32:54.912Z,96406.27
2018-02-04T06:35:20.920Z,96414.79
2018-02-04T06:37:46.894Z,96413.70
2018-02-04T06:40:12.894Z,96415.69
2018-02-04T06:42:38.876Z,96418.23
2018-02-04T06:45:04.981Z,96419.63
2018-02-04T06:47:30.971Z,96429.61
2018-02-04T06:49:56.917Z,96427.06
2018-02-04T06:52:22.936Z,96439.14
2018-02-04T06:54:48.927Z,96455.84
2018-02-04T06:57:14.932Z,96455.34
2018-02-04T06:59:40.925Z,96466.04
2018-02-04T07:02:06.929Z,96470.07
2018-02-04T07:04:32.908Z,96475.39
2018-02-04T07:06:58.892Z,96471.52
2018-02-04T07:09:24.897Z,96483.02
2018-02-04T07:11:50.868Z,96490.77
2018-02-04T07:14:16.892Z,96491.91
2018-02-04T07:16:42.877Z,96496.24
2018-02-04T07:19:08.860Z,96501.10
2018-02-04T07:21:34.870Z,96500.51
2018-02-04T07:24:00.814Z,96499.03
2018-02-04T07:26:26.832Z,96500.02
2018-02-04T07:28:52.832Z,96499.33
2018-02-04T07:31:18.953Z,96506.86
2018-02-04T07:33:44.949Z,96511.96
2018-02-04T07:36:10.926Z,96509.46
2018-02-04T07:38:36.965Z,96519.79
2018-02-04T07:41:02.973Z,96525.27
2018-02-04T07:43:29.056Z,96524.52
2018-02-04T07:45:55.040Z,96532.13
2018-02-04T07:48:21.052Z,96532.48
2018-02-04T07:50:47.076Z,96544.25
2018-02-04T07:53:13.060Z,96547.58
2018-02-04T07:55:39.111Z,96546.79
2018-02-04T07:58:05.287Z,96555.03
2018-02-04T08:00:31.317Z,96554.19
2018-02-04T08:02:57.345Z,96553.53
2018-02-04T08:05:23.425Z,96548.31
2018-02-04T08:07:49.441Z,96559.95
2018-02-04T08:10:15.850Z,96564.72
2018-02-04T08:12:41.872Z,96566.34
2018-02-04T08:15:08.360Z,96567.63
2018-02-04T08:17:34.508Z,96570.23
2018-02-04T08:20:00.505Z,96575.72
2018-02-04T08:22:26.539Z,96571.53
2018-02-04T08:24:52.612Z,96571.31
2018-02-04T08:27:18.591Z,96582.13
2018-02-04T08:29:44.613Z,96578.71
2018-02-04T08:32:10.638Z,96580.36
2018-02-04T08:34:36.634Z,96578.43
2018-02-04T08:37:02.657Z,96580.81
2018-02-04T08:39:28.897Z,96585.34
2018-02-04T08:41:54.897Z,96594.66
2018-02-04T08:44:20.908Z,96596.56
2018-02-04T08:46:46.920Z,96598.23
2018-02-04T08:49:12.947Z,96607.25
2018-02-04T08:51:38.961Z,96601.78
2018-02-04T08:54:05.017Z,96597.82
2018-02-04T08:56:30.991Z,96601.86
2018-02-04T08:58:56.989Z,96606.07
2018-02-04T09:01:22.995Z,96607.99
2018-02-04T09:03:49.041Z,96605.70
2018-02-04T09:06:15.073Z,96610.66
2018-02-04T09:08:41.070Z,96620.33
2018-02-04T09:11:07.100Z,96621.69
2018-02-04T09:13:33.127Z,96625.67
2018-02-04T09:15:59.114Z,96629.30
2018-02-04T09:18:25.136Z,96630.69
2018-02-04T09:20:51.095Z,96641.27
2018-02-04T09:23:17.144Z,96644.11
2018-02-04T09:25:43.148Z,96639.31
2018-02-04T09:28:09.117Z,96644.48
2018-02-04T09:30:35.130Z,96640.23
2018-02-04T09:33:01.134Z,96644.52
2018-02-04T09:35:27.150Z,96649.00
2018-02-04T09:37:53.151Z,96653.84
2018-02-04T09:40:19.124Z,96649.45
2018-02-04T09:42:45.128Z,96647.34
2018-02-04T09:45:11.101Z,96657.31
2018-02-04T09:47:37.156Z,96655.89
2018-02-04T09:50:03.383Z,96652.21
2018-02-04T09:52:29.441Z,96658.58
2018-02-04T09:54:55.495Z,96667.44
2018-02-04T09:57:21.488Z,96662.77
2018-02-04T09:59:47.504Z,96656.78
2018-02-04T10:02:13.511Z,96661.06
2018-02-04T10:04:39.684Z,96659.71
2018-02-04T10:07:06.171Z,96663.22
2018-02-04T10:09:32.405Z,96661.13
2018-02-04T10:11:58.466Z,96668.16
2018-02-04T10:14:24.477Z,96670.45
2018-02-04T10:16:50.666Z,96672.23
2018-02-04T10:19:16.713Z,96672.39
2018-02-04T10:21:42.697Z,96673.27
2018-02-04T10:24:08.738Z,96677.11
2018-02-04T10:26:34.761Z,96681.09
2018-02-04T10:29:00.707Z,96681.66
2018-02-04T10:31:26.793Z,96689.39
2018-02-04T10:33:52.788Z,96687.33
2018-02-04T10:36:18.805Z,96684.02
2018-02-04T10:38:44.809Z,96691.39
2018-02-04T10:41:10.806Z,96692.17
2018-02-04T10:43:36.857Z,96693.03
2018-02-04T10:46:02.917Z,96702.49
2018-02-04T10:48:28.933Z,96704.73
2018-02-04T10:51:00.984Z,96708.74
2018-02-04T10:53:27.079Z,96703.89
2018-02-04T10:55:53.037Z,96706.97
2018-02-04T10:58:19.176Z,96705.34
2018-02-04T11:00:45.210Z,96708.47
2018-02-04T11:03:11.544Z,96706.33
2018-02-04T11:05:37.591Z,96706.17
2018-02-04T11:08:03.622Z,96707.20
2018-02-04T11:10:29.665Z,96713.84
2018-02-04T11:12:55.715Z,96716.62
2018-02-04T11:15:21.844Z,96715.77
2018-02-04T11:17:47.936Z,96718.23
2018-02-04T11:20:13.988Z,96715.18
2018-02-04T11:22:40.055Z,96717.41
2018-02-04T11:25:06.086Z,96717.11
2018-02-04T11:27:32.204Z,96714.26
2018-02-04T11:29:58.243Z,96718.33
2018-02-04T11:32:24.269Z,96723.42
2018-02-04T11:34:50.416Z,96714.17
2018-02-04T11:37:16.450Z,96734.33
2018-02-04T11:39:42.545Z,96730.66
2018-02-04T11:42:08.584Z,96737.52
2018-02-04T11:44:34.609Z,96735.45
2018-02-04T11:47:00.700Z,96744.14
2018-02-04T11:49:26.778Z,96743.72
2018-02-04T11:51:52.869Z,96738.16
2018-02-04T11:54:18.933Z,96745.43
2018-02-04T11:56:45.001Z,96742.93
2018-02-04T11:59:11.010Z,96743.80
2018-02-04T12:01:37.065Z,96749.78
2018-02-04T12:04:03.072Z,96758.14
2018-02-04T12:06:29.095Z,96753.05
2018-02-04T12:08:55.088Z,96758.95
2018-02-04T12:11:21.089Z,96766.45
2018-02-04T12:13:47.180Z,96764.36
2018-02-04T12:16:13.168Z,96764.88
2018-02-04T12:18:39.181Z,96767.10
2018-02-04T12:21:05.308Z,96765.61
2018-02-04T12:23:31.339Z,96768.44
2018-02-04T12:25:57.376Z,96769.78
2018-02-04T12:28:23.478Z,96769.06
2018-02-04T12:30:51.782Z,96773.61
2018-02-04T12:33:17.861Z,96767.70
2018-02-04T12:35:43.966Z,96769.23
2018-02-04T12:38:10.017Z,96767.43
2018-02-04T12:40:36.049Z,96776.64
2018-02-04T12:43:02.500Z,96772.70
2018-02-04T12:45:28.492Z,96784.82
2018-02-04T12:47:54.516Z,96782.45
2018-02-04T12:50:20.649Z,96784.05
2018-02-04T12:52:46.727Z,96787.09
2018-02-04T12:55:13.052Z,96789.45
2018-02-04T12:57:39.092Z,96789.87
2018-02-04T13:00:05.132Z,96796.06
2018-02-04T13:02:31.150Z,96800.13
2018-02-04T13:04:57.104Z,96801.93
2018-02-04T13:07:23.097Z,96801.39
2018-02-04T13:09:49.173Z,96804.80
2018-02-04T13:12:15.178Z,96804.17
2018-02-04T13:14:41.679Z,96806.77
2018-02-04T13:17:07.729Z,96811.06
2018-02-04T13:19:33.767Z,96810.11
2018-02-04T13:21:59.797Z,96805.64
2018-02-04T13:24:25.830Z,96811.28
2018-02-04T13:26:52.199Z,96818.28
2018-02-04T13:29:18.250Z,96817.13
2018-02-04T13:31:44.392Z,96812.97
2018-02-04T13:34:10.462Z,96819.45
2018-02-04T13:36:36.430Z,96813.55
2018-02-04T13:39:02.472Z,96820.73
2018-02-04T13:41:28.584Z,96830.38
2018-02-04T13:43:55.012Z,96829.25
2018-02-04T13:46:21.065Z,96829.41
2018-02-04T13:48:47.137Z,96830.56
2018-02-04T13:51:13.183Z,96825.73
2018-02-04T13:53:39.423Z,96841.94
2018-02-04T13:56:05.800Z,96847.27
2018-02-04T13:58:31.844Z,96837.16
2018-02-04T14:00:57.931Z,96844.30
2018-02-04T14:03:24.404Z,96852.58
2018-02-04T14:05:50.425Z,96850.63
2018-02-04T14:08:16.529Z,96843.27
2018-02-04T14:10:42.519Z,96854.94
2018-02-04T14:13:08.818Z,96855.19
2018-02-04T14:15:34.604Z,96850.77
2018-02-04T14:18:01.009Z,96862.03
2018-02-04T14:20:27.058Z,96864.38
2018-02-04T14:22:53.103Z,96859.86
2018-02-04T14:25:21.024Z,96859.06
2018-02-04T14:27:47.129Z,96864.45
2018-02-04T14:30:13.148Z,96861.58
2018-02-04T14:32:39.256Z,96873.23
2018-02-04T14:35:05.400Z,96866.84
2018-02-04T14:37:31.505Z,96873.25
2018-02-04T14:39:58.083Z,96868.36
2018-02-04T14:42:24.150Z,96868.88
2018-02-04T14:44:50.499Z,96865.94
2018-02-04T14:47:16.645Z,96879.87
2018-02-04T14:49:42.683Z,96877.05
2018-02-04T14:52:11.219Z,96880.98
2018-02-04T14:54:37.284Z,96881.95
2018-02-04T14:57:03.692Z,96889.47
2018-02-04T14:59:29.734Z,96889.41
2018-02-04T15:01:55.883Z,96889.14
2018-02-04T15:04:21.971Z,96826.61
2018-02-04T15:06:48.453Z,96896.49
2018-02-04T15:09:14.527Z,96898.05
2018-02-04T15:11:40.604Z,96907.24
2018-02-04T15:14:07.383Z,96902.63
2018-02-04T15:16:33.481Z,96905.12
2018-02-04T15:18:59.512Z,96906.79
2018-02-04T15:21:25.679Z,96908.25
2018-02-04T15:23:51.753Z,96912.48
2018-02-04T15:26:17.838Z,96911.25
2018-02-04T15:28:43.918Z,96915.41
2018-02-04T15:31:09.935Z,96921.58
2018-02-04T15:33:35.966Z,96929.58
2018-02-04T15:36:02.117Z,96932.03
2018-02-04T15:38:28.217Z,96936.43
2018-02-04T15:40:54.255Z,96935.22
2018-02-04T15:43:20.364Z,96945.88
2018-02-04T15:45:46.450Z,96949.11
2018-02-04T15:48:12.502Z,96941.56
2018-02-04T15:50:40.134Z,96956.05
2018-02-04T15:53:06.328Z,96962.57
2018-02-04T15:55:32.417Z,96968.33
2018-02-04T15:57:58.456Z,96966.08
2018-02-04T16:00:24.886Z,96968.89
2018-02-04T16:02:51.016Z,96977.48
2018-02-04T16:05:17.141Z,96975.28
2018-02-04T16:07:43.215Z,96975.75
2018-02-04T16:10:09.293Z,96982.03
2018-02-04T16:12:35.361Z,96978.29
2018-02-04T16:15:01.468Z,96982.67
2018-02-04T16:17:27.844Z,96983.04
2018-02-04T16:19:53.969Z,96986.15
2018-02-04T16:22:20.065Z,96992.34
2018-02-04T16:24:46.189Z,96992.25
2018-02-04T16:27:12.330Z,96988.87
2018-02-04T16:29:38.423Z,96996.76
2018-02-04T16:32:04.473Z,96991.35
2018-02-04T16:34:30.882Z,96991.27
2018-02-04T16:36:56.941Z,96990.48
2018-02-04T16:39:23.041Z,96996.57
2018-02-04T16:41:49.112Z,96999.16
2018-02-04T16:44:15.249Z,97003.20
2018-02-04T16:46:41.324Z,97003.72
2018-02-04T16:49:07.367Z,97010.96
2018-02-04T16:51:33.905Z,97012.01
2018-02-04T16:53:59.985Z,97019.41
2018-02-04T16:56:30.344Z,97025.42
2018-02-04T16:58:56.440Z,97030.51
2018-02-04T17:01:22.500Z,97030.78
2018-02-04T17:03:48.548Z,97034.34
2018-02-04T17:06:14.560Z,97044.22
2018-02-04T17:08:41.069Z,97044.92
2018-02-04T17:11:07.112Z,97055.99
2018-02-04T17:13:33.313Z,97053.69
2018-02-04T17:15:59.398Z,97060.79
2018-02-04T17:18:25.434Z,97069.39
2018-02-04T17:20:51.593Z,97062.98
2018-02-04T17:23:17.642Z,97068.47
2018-02-04T17:25:44.072Z,97073.33
2018-02-04T17:28:10.421Z,97077.55
2018-02-04T17:30:36.444Z,97079.87
2018-02-04T17:33:02.524Z,97081.65
2018-02-04T17:35:28.609Z,97074.97
2018-02-04T17:37:54.651Z,97089.45
2018-02-04T17:40:20.698Z,97089.69
2018-02-04T17:42:47.157Z,97093.73
2018-02-04T17:45:13.229Z,97097.91
2018-02-04T17:47:39.439Z,97102.31
2018-02-04T17:50:05.510Z,97103.45
2018-02-04T17:52:31.576Z,97102.99
2018-02-04T17:54:57.640Z,97102.60
2018-02-04T17:57:23.664Z,97105.77
2018-02-04T17:59:49.710Z,97111.60
2018-02-04T18:02:15.710Z,97108.84
2018-02-04T18:04:41.761Z,97111.95
2018-02-04T18:07:07.799Z,97116.88
2018-02-04T18:09:33.834Z,97114.53
2018-02-04T18:12:00.292Z,97119.81
2018-02-04T18:14:26.414Z,97124.00
2018-02-04T18:16:52.471Z,97122.84
2018-02-04T18:19:18.564Z,97124.38
2018-02-04T18:21:44.580Z,97124.53
2018-02-04T18:24:11.073Z,97122.16
2018-02-04T18:26:37.144Z,97126.89
2018-02-04T18:29:03.237Z,97131.92
2018-02-04T18:31:29.300Z,97129.69
2018-02-04T18:33:55.256Z,97135.45
2018-02-04T18:36:21.690Z,97143.28
2018-02-04T18:38:47.732Z,97142.66
2018-02-04T18:41:14.254Z,97141.15
2018-02-04T18:43:40.339Z,97146.72
2018-02-04T18:46:06.432Z,97140.17
2018-02-04T18:48:32.818Z,97150.61
2018-02-04T18:50:58.949Z,97148.70
2018-02-04T18:53:25.015Z,97154.34
2018-02-04T18:55:51.201Z,97150.38
2018-02-04T18:58:17.264Z,97151.28
2018-02-04T19:00:43.312Z,97150.87
2018-02-04T19:03:09.338Z,97154.88
2018-02-04T19:05:38.230Z,97162.54
2018-02-04T19:08:04.676Z,97166.59
2018-02-04T19:10:30.716Z,97174.27
2018-02-04T19:12:56.742Z,97162.38
2018-02-04T19:15:22.710Z,97167.21
2018-02-04T19:17:49.073Z,97181.30
2018-02-04T19:20:15.092Z,97180.84
2018-02-04T19:22:41.108Z,97182.20
2018-02-04T19:25:07.156Z,97186.81
2018-02-04T19:27:33.177Z,97189.95
2018-02-04T19:29:59.251Z,97201.24
2018-02-04T19:32:25.250Z,97193.81
2018-02-04T19:34:51.659Z,97195.47
2018-02-04T19:37:17.683Z,97195.91
2018-02-04T19:39:43.740Z,97197.29
2018-02-04T19:42:09.766Z,97201.02
2018-02-04T19:44:35.816Z,97203.27
2018-02-04T19:47:01.869Z,97210.59
2018-02-04T19:49:27.905Z,97204.28
2018-02-04T19:51:54.300Z,97210.47
2018-02-04T19:54:20.334Z,97202.86
2018-02-04T19:56:46.372Z,97212.20
2018-02-04T19:59:12.350Z,97207.93
2018-02-04T20:01:38.376Z,97219.89
2018-02-04T20:04:04.415Z,97227.58
2018-02-04T20:06:30.445Z,97224.35
2018-02-04T20:08:57.284Z,97228.21
2018-02-04T20:11:23.309Z,97232.77
2018-02-04T20:13:49.344Z,97234.13
2018-02-04T20:16:15.358Z,97238.01
2018-02-04T20:18:41.368Z,97236.54
2018-02-04T20:21:07.428Z,97237.83
2018-02-04T20:23:33.421Z,97240.34
2018-02-04T20:25:59.455Z,97239.47
2018-02-04T20:28:25.487Z,97241.22
2018-02-04T20:30:51.964Z,97242.98
2018-02-04T20:33:19.757Z,97247.68
2018-02-04T20:35:45.733Z,97250.09
2018-02-04T20:38:11.757Z,97251.50
2018-02-04T20:40:37.768Z,97255.86
2018-02-04T20:43:04.133Z,97252.81
2018-02-04T20:45:30.161Z,97255.96
2018-02-04T20:47:56.164Z,97257.86
2018-02-04T20:50:22.209Z,97266.24
2018-02-04T20:52:48.264Z,97272.22
2018-02-04T20:55:14.633Z,97274.41
2018-02-04T20:57:41.560Z,97270.19
2018-02-04T21:00:07.548Z,97281.70
2018-02-04T21:02:33.621Z,97280.81
2018-02-04T21:04:59.669Z,97281.94
2018-02-04T21:07:26.093Z,97283.09
2018-02-04T21:09:52.204Z,97283.81
2018-02-04T21:12:18.231Z,97285.29
2018-02-04T21:14:44.340Z,97296.16
2018-02-04T21:17:10.379Z,97293.38
2018-02-04T21:19:36.444Z,97296.26
2018-02-04T21:22:02.540Z,97299.83
2018-02-04T21:24:28.609Z,97302.56
2018-02-04T21:26:54.565Z,97303.58
2018-02-04T21:29:21.020Z,97303.80
2018-02-04T21:31:47.041Z,97301.67
2018-02-04T21:34:13.152Z,97304.01
2018-02-04T21:36:39.200Z,97309.33
2018-02-04T21:39:05.307Z,97306.68
2018-02-04T21:41:31.332Z,97304.90
2018-02-04T21:43:57.337Z,97310.92
2018-02-04T21:46:23.720Z,97315.15
2018-02-04T21:48:49.753Z,97314.32
2018-02-04T21:51:15.832Z,97312.28
2018-02-04T21:53:41.969Z,97319.96
2018-02-04T21:56:07.986Z,97313.53
2018-02-04T21:58:34.047Z,97309.62
2018-02-04T22:01:00.111Z,97313.80
2018-02-04T22:03:26.507Z,97317.52
2018-02-04T22:05:52.556Z,97314.80
2018-02-04T22:08:18.781Z,97320.71
2018-02-04T22:10:44.785Z,97318.45
2018-02-04T22:13:10.900Z,97319.98
2018-02-04T22:15:36.956Z,97323.34
2018-02-04T22:18:03.052Z,97323.20
2018-02-04T22:20:29.395Z,97329.14
2018-02-04T22:22:55.407Z,97324.23
2018-02-04T22:25:21.417Z,97329.74
2018-02-04T22:27:47.523Z,97327.58
2018-02-04T22:30:13.540Z,97327.19
2018-02-04T22:32:39.620Z,97329.12
2018-02-04T22:35:05.600Z,97332.90
2018-02-04T22:37:31.993Z,97334.31
2018-02-04T22:39:57.969Z,97342.08
2018-02-04T22:42:23.982Z,97335.81
2018-02-04T22:44:50.017Z,97336.33
2018-02-04T22:47:15.987Z,97343.05
2018-02-04T22:49:42.005Z,97344.23
2018-02-04T22:52:07.947Z,97349.52
2018-02-04T22:54:34.368Z,97347.98
2018-02-04T22:57:00.435Z,97350.30
2018-02-04T22:59:26.460Z,97353.92
2018-02-04T23:01:52.543Z,97360.81
2018-02-04T23:04:18.648Z,97357.47
2018-02-04T23:06:45.005Z,97364.71
2018-02-04T23:09:11.030Z,97373.80
2018-02-04T23:11:37.060Z,97374.83
2018-02-04T23:14:03.094Z,97378.72
2018-02-04T23:16:29.100Z,97375.73
2018-02-04T23:18:55.181Z,97382.78
2018-02-04T23:21:21.259Z,97381.72
2018-02-04T23:23:47.248Z,97386.91
2018-02-04T23:26:13.272Z,97386.39
2018-02-04T23:28:39.292Z,97386.05
2018-02-04T23:31:05.655Z,97390.97
2018-02-04T23:33:31.705Z,97383.64
2018-02-04T23:35:57.750Z,97394.12
2018-02-04T23:38:23.813Z,97394.23
2018-02-04T23:40:49.920Z,97394.58
2018-02-04T23:43:15.941Z,97397.50
2018-02-04T23:45:41.968Z,97401.59
2018-02-04T23:48:07.996Z,97401.08
2018-02-04T23:50:34.018Z,97399.44
2018-02-04T23:53:00.404Z,97398.36
2018-02-04T23:55:26.440Z,97404.08
2018-02-04T23:57:52.481Z,97393.28
